Time;durP1;ratioP1;P1;durP2;ratioP2;P2;SDS_P1;SDS_P2;PMS_P1;PMS_P2;Temp;Humidity;BMP_temperature;BMP_pressure;BME280_temperature;BME280_humidity;BME280_pressure;Samples;Min_cycle;Max_cycle;Signal;HPM_P1;HPM_P2
2022/07/21 16:28:52;;;;;;;7.35;2.80;;;23.60;55.00;;;;;;2116326;27;20386;-87
2022/07/21 16:29:53;;;;;;;;;;;23.90;56.80;;;;;;2102122;28;20028;-91
2022/07/21 16:30:53;;;;;;;8.07;3.08;;;23.90;55.70;;;;;;2104304;28;20350;-93
2022/07/21 16:31:58;;;;;;;4.30;2.87;;;23.90;56.40;;;;;;2095679;28;20021;-93
2022/07/21 16:32:59;;;;;;;6.88;3.30;;;23.90;55.80;;;;;;2087201;28;20032;-92
2022/07/21 16:34:00;;;;;;;9.93;3.20;;;23.90;56.00;;;;;;2089671;28;20014;-92
2022/07/21 16:35:01;;;;;;;4.10;3.17;;;23.90;55.80;;;;;;2088562;28;20024;-94
2022/07/21 16:36:01;;;;;;;8.52;3.63;;;23.90;56.10;;;;;;2089729;28;20063;-92
2022/07/21 16:37:04;;;;;;;8.20;3.30;;;23.90;56.20;;;;;;2089403;28;20021;-92
2022/07/21 16:38:05;;;;;;;12.98;3.90;;;24.00;55.70;;;;;;2091379;28;20053;-92
2022/07/21 16:39:07;;;;;;;9.15;3.90;;;24.00;55.90;;;;;;2099964;28;20033;-93
2022/07/21 16:40:08;;;;;;;7.37;3.17;;;24.00;55.60;;;;;;2090814;28;20523;-93
2022/07/21 16:41:09;;;;;;;9.05;3.63;;;24.00;55.80;;;;;;2080947;28;20056;-94
2022/07/21 16:42:10;;;;;;;9.02;3.10;;;24.00;55.90;;;;;;2082449;28;20515;-94
2022/07/21 16:43:11;;;;;;;5.60;2.93;;;24.00;55.80;;;;;;2091133;28;20069;-93
2022/07/21 16:44:15;;;;;;;8.57;3.50;;;24.00;55.40;;;;;;2081354;28;20060;-93
2022/07/21 16:45:17;;;;;;;7.20;3.13;;;24.00;55.20;;;;;;2088034;28;20036;-92
2022/07/21 16:46:18;;;;;;;9.32;4.05;;;24.00;55.60;;;;;;2097801;28;20442;-92
2022/07/21 16:47:19;;;;;;;5.30;2.70;;;24.00;55.20;;;;;;2089473;28;20072;-92
2022/07/21 16:48:20;;;;;;;6.93;3.07;;;24.00;55.20;;;;;;2088223;28;20479;-93
2022/07/21 16:49:20;;;;;;;10.87;3.73;;;24.10;55.30;;;;;;2089609;28;20554;-92
2022/07/21 16:50:21;;;;;;;7.37;3.07;;;24.10;55.30;;;;;;2097357;28;20032;-92
2022/07/21 16:51:22;;;;;;;7.57;3.63;;;24.10;55.30;;;;;;2097293;28;20039;-92
2022/07/21 16:52:23;;;;;;;6.07;3.50;;;24.10;55.30;;;;;;2101691;28;20040;-92
2022/07/21 16:53:24;;;;;;;6.90;3.63;;;24.10;55.60;;;;;;2097530;28;20437;-91
2022/07/21 16:54:25;;;;;;;9.57;3.40;;;24.20;55.50;;;;;;2106285;28;20032;-92
2022/07/21 16:55:25;;;;;;;10.40;4.93;;;24.20;56.50;;;;;;2100185;28;20021;-93
2022/07/21 16:56:26;;;;;;;12.30;4.80;;;24.20;55.70;;;;;;2097718;28;20425;-93
2022/07/21 16:57:27;;;;;;;12.87;4.87;;;24.20;55.40;;;;;;2086139;28;20031;-92
2022/07/21 16:58:28;;;;;;;11.77;4.60;;;24.20;55.20;;;;;;2097504;28;20025;-92
2022/07/21 16:59:29;;;;;;;10.50;4.27;;;24.30;55.20;;;;;;2095187;28;20029;-92
2022/07/21 17:00:30;;;;;;;9.47;3.80;;;24.30;55.30;;;;;;2100222;28;20031;-93
2022/07/21 17:01:30;;;;;;;9.03;3.43;;;24.30;55.30;;;;;;2094790;28;20719;-92
2022/07/21 17:02:31;;;;;;;7.03;3.10;;;24.30;55.00;;;;;;2104773;28;20256;-89
2022/07/21 17:03:32;;;;;;;7.03;3.60;;;24.20;54.60;;;;;;2097897;28;20029;-89
2022/07/21 17:04:33;;;;;;;6.35;2.95;;;24.30;54.90;;;;;;2089381;28;20069;-92
2022/07/21 17:05:34;;;;;;;9.97;3.33;;;24.20;54.60;;;;;;2089401;28;20075;-90
2022/07/21 17:06:35;;;;;;;4.13;2.97;;;24.20;54.90;;;;;;2089558;28;20025;-90
2022/07/21 17:07:36;;;;;;;10.90;3.97;;;24.30;55.30;;;;;;2097763;28;20025;-88
2022/07/21 17:08:36;;;;;;;10.83;3.10;;;24.30;54.80;;;;;;2085528;28;20107;-90
2022/07/21 17:09:37;;;;;;;9.07;3.20;;;24.30;54.90;;;;;;2086367;28;20416;-90
2022/07/21 17:10:38;;;;;;;7.17;3.90;;;24.30;55.40;;;;;;2110615;28;20031;-90
2022/07/21 17:11:39;;;;;;;7.03;3.57;;;24.30;55.20;;;;;;2113179;28;20027;-89
2022/07/21 17:12:40;;;;;;;6.73;2.70;;;24.30;55.10;;;;;;2084548;28;20022;-90
2022/07/21 17:13:41;;;;;;;7.72;3.05;;;24.30;54.90;;;;;;2081467;28;20018;-88
2022/07/21 17:14:42;;;;;;;10.67;3.83;;;24.30;54.70;;;;;;2095966;28;20021;-91
2022/07/21 17:15:43;;;;;;;7.00;3.33;;;24.30;54.50;;;;;;2102842;28;20481;-89
2022/07/21 17:16:43;;;;;;;6.63;3.30;;;24.30;54.10;;;;;;2096088;28;20021;-86
2022/07/21 17:17:44;;;;;;;5.97;2.97;;;24.10;54.30;;;;;;2106870;28;20107;-87
2022/07/21 17:18:45;;;;;;;7.82;2.88;;;24.00;54.90;;;;;;2089547;28;20029;-85
2022/07/21 17:19:46;;;;;;;8.07;3.43;;;23.90;55.30;;;;;;2091277;28;20029;-86
2022/07/21 17:20:48;;;;;;;5.77;3.47;;;23.90;55.50;;;;;;2096981;28;20037;-85
2022/07/21 17:21:49;;;;;;;10.02;3.30;;;23.80;55.70;;;;;;2089857;28;20112;-86
2022/07/21 17:22:50;;;;;;;7.82;2.97;;;23.70;55.70;;;;;;2101835;28;20108;-86
2022/07/21 17:23:51;;;;;;;9.60;3.47;;;23.70;55.70;;;;;;2097647;28;20037;-89
2022/07/21 17:24:52;;;;;;;8.97;3.17;;;23.70;55.90;;;;;;2091387;28;20375;-89
2022/07/21 17:25:53;;;;;;;8.93;3.47;;;23.60;55.40;;;;;;2097404;28;20039;-90
2022/07/21 17:26:54;;;;;;;9.20;3.30;;;23.60;55.70;;;;;;2095944;28;20045;-89
2022/07/21 17:27:54;;;;;;;11.50;3.60;;;23.60;56.20;;;;;;2088904;28;20033;-89
2022/07/21 17:28:55;;;;;;;6.80;4.30;;;23.60;56.20;;;;;;2088439;28;20467;-88
2022/07/21 17:29:56;;;;;;;12.33;3.70;;;23.60;56.20;;;;;;2089232;28;20053;-88
2022/07/21 17:30:57;;;;;;;7.68;3.25;;;23.60;56.20;;;;;;2089177;28;20376;-89
2022/07/21 17:31:58;;;;;;;8.63;2.80;;;23.60;56.20;;;;;;2089246;28;20036;-89
2022/07/21 17:32:59;;;;;;;9.20;3.60;;;23.60;56.10;;;;;;2105934;28;20086;-89
2022/07/21 17:34:00;;;;;;;6.55;3.22;;;23.60;56.10;;;;;;2097356;28;20526;-88
2022/07/21 17:35:01;;;;;;;6.13;3.78;;;23.60;56.10;;;;;;2096433;28;20021;-88
2022/07/21 17:36:02;;;;;;;6.90;3.43;;;23.60;56.00;;;;;;2087479;28;20439;-89
2022/07/21 17:37:03;;;;;;;7.90;3.50;;;23.50;55.90;;;;;;2073098;28;20046;-88
2022/07/21 17:38:05;;;;;;;7.07;3.22;;;23.50;56.00;;;;;;2085438;28;20017;-88
2022/07/21 17:39:06;;;;;;;6.85;3.15;;;23.50;56.40;;;;;;2089447;28;20028;-88
2022/07/21 17:40:09;;;;;;;12.13;3.73;;;23.50;56.20;;;;;;2084039;28;20144;-89
2022/07/21 17:41:10;;;;;;;7.10;3.20;;;23.60;56.20;;;;;;2092084;28;20029;-88
2022/07/21 17:42:11;;;;;;;8.33;3.70;;;23.60;56.50;;;;;;2082673;28;20037;-89
2022/07/21 17:43:12;;;;;;;10.13;3.67;;;23.60;56.20;;;;;;2083391;28;20026;-89
2022/07/21 17:44:13;;;;;;;8.00;3.20;;;23.60;56.20;;;;;;2083441;28;20037;-88
2022/07/21 17:45:14;;;;;;;5.87;3.23;;;23.60;56.20;;;;;;2091180;28;20312;-88
2022/07/21 17:46:14;;;;;;;9.05;3.42;;;23.50;56.10;;;;;;2093461;28;20078;-88
2022/07/21 17:47:15;;;;;;;9.10;4.03;;;23.50;56.20;;;;;;2091086;28;20025;-88
2022/07/21 17:48:16;;;;;;;11.63;3.37;;;23.50;56.10;;;;;;2089814;28;20033;-88
2022/07/21 17:49:17;;;;;;;8.57;3.57;;;23.60;56.10;;;;;;2091012;28;20312;-89
2022/07/21 17:50:18;;;;;;;7.87;3.27;;;23.60;56.30;;;;;;2082727;28;20081;-89
2022/07/21 17:51:19;;;;;;;9.95;3.55;;;23.50;56.10;;;;;;2085388;28;20120;-89
2022/07/21 17:52:20;;;;;;;10.00;3.57;;;23.50;56.00;;;;;;2066425;28;20034;-89
2022/07/21 17:53:21;;;;;;;8.90;3.73;;;23.50;56.30;;;;;;2082804;28;20026;-88
2022/07/21 17:54:22;;;;;;;9.53;3.63;;;23.50;56.30;;;;;;2085303;28;20026;-88
2022/07/21 17:55:22;;;;;;;7.60;3.77;;;23.50;56.50;;;;;;2082020;28;20025;-89
2022/07/21 17:56:23;;;;;;;7.13;3.40;;;23.50;56.50;;;;;;2082940;28;20096;-89
2022/07/21 17:58:43;;;;;;;8.02;3.63;;;23.50;56.70;;;;;;2097325;28;20040;-89
2022/07/21 17:59:45;;;;;;;8.47;3.30;;;23.40;56.80;;;;;;2092092;28;20029;-89
2022/07/21 18:00:46;;;;;;;9.00;3.20;;;23.40;56.90;;;;;;2076731;28;20464;-88
2022/07/21 18:01:47;;;;;;;9.57;3.17;;;23.40;56.80;;;;;;2082457;28;20071;-88
2022/07/21 18:02:48;;;;;;;8.07;3.63;;;23.40;56.90;;;;;;2083247;28;20029;-89
2022/07/21 18:03:50;;;;;;;6.73;3.50;;;23.40;57.00;;;;;;2083446;28;20044;-88
2022/07/21 18:04:51;;;;;;;8.20;3.28;;;23.40;57.00;;;;;;2090718;28;20025;-89
2022/07/21 18:05:52;;;;;;;7.73;3.13;;;23.40;57.00;;;;;;2091580;28;20328;-89
2022/07/21 18:06:52;;;;;;;12.10;3.20;;;23.50;57.10;;;;;;2083338;28;20040;-89
2022/07/21 18:07:53;;;;;;;5.90;3.50;;;23.50;56.90;;;;;;2091543;28;20025;-89
2022/07/21 18:08:54;;;;;;;6.53;3.30;;;23.40;56.90;;;;;;2082522;28;20033;-88
2022/07/21 18:09:55;;;;;;;9.80;3.73;;;23.50;57.10;;;;;;2075473;28;20384;-89
2022/07/21 18:10:56;;;;;;;5.03;3.10;;;23.50;57.10;;;;;;2091793;28;20060;-89
2022/07/21 18:11:58;;;;;;;8.10;3.42;;;23.50;57.00;;;;;;2083509;28;20037;-89
2022/07/21 18:12:58;;;;;;;6.65;3.35;;;23.50;57.00;;;;;;2091622;28;20025;-88
2022/07/21 18:13:59;;;;;;;9.80;3.00;;;23.50;57.00;;;;;;2083453;28;20091;-88
2022/07/21 18:15:00;;;;;;;9.40;3.50;;;23.50;57.00;;;;;;2075710;28;20068;-88
2022/07/21 18:16:01;;;;;;;10.10;3.70;;;23.50;57.10;;;;;;2083313;28;20021;-88
2022/07/21 18:17:03;;;;;;;9.32;3.83;;;23.50;56.80;;;;;;2083452;28;20025;-89
2022/07/21 18:18:04;;;;;;;7.93;3.47;;;23.40;57.00;;;;;;2095500;28;20409;-89
2022/07/21 18:19:05;;;;;;;8.07;3.75;;;23.40;57.10;;;;;;2083439;28;20045;-87
2022/07/21 18:20:06;;;;;;;6.33;3.83;;;23.40;57.10;;;;;;2083298;28;20108;-89
2022/07/21 18:21:07;;;;;;;8.80;3.50;;;23.40;57.10;;;;;;2083616;28;20040;-89
2022/07/21 18:22:08;;;;;;;10.10;3.70;;;23.40;57.40;;;;;;2082362;28;20040;-89
2022/07/21 18:23:11;;;;;;;6.57;3.60;;;23.40;57.30;;;;;;2095304;28;20044;-89
2022/07/21 18:24:12;;;;;;;7.95;3.55;;;23.40;57.20;;;;;;2091596;28;20348;-89
2022/07/21 18:25:13;;;;;;;7.57;3.50;;;23.40;57.10;;;;;;2076668;28;20068;-89
2022/07/21 18:26:13;;;;;;;8.37;3.33;;;23.30;57.30;;;;;;2090526;28;20025;-89
2022/07/21 18:27:14;;;;;;;7.70;3.27;;;23.30;57.30;;;;;;2075165;28;20267;-88
2022/07/21 18:28:15;;;;;;;12.60;3.50;;;23.40;57.40;;;;;;2085548;28;20065;-89
2022/07/21 18:29:16;;;;;;;8.80;3.22;;;23.40;57.20;;;;;;2099884;28;20269;-88
2022/07/21 18:30:18;;;;;;;13.73;3.77;;;23.40;57.20;;;;;;2091307;28;20032;-88
2022/07/21 18:31:20;;;;;;;8.07;3.38;;;23.40;57.30;;;;;;2091391;28;20370;-89
2022/07/21 18:32:22;;;;;;;5.80;3.25;;;23.40;57.30;;;;;;2099623;28;20028;-88
2022/07/21 18:33:22;;;;;;;;;;;23.40;57.30;;;;;;2099969;28;20024;-89
2022/07/21 18:34:23;;;;;;;7.57;3.55;;;23.40;57.20;;;;;;2091457;28;19919;-88
2022/07/21 18:35:24;;;;;;;7.57;4.23;;;23.50;57.30;;;;;;2082276;28;20472;-88
2022/07/21 18:36:25;;;;;;;8.47;3.93;;;23.40;57.10;;;;;;2091353;28;20057;-88
2022/07/21 18:37:25;;;;;;;7.73;3.70;;;23.40;57.10;;;;;;2091406;28;20178;-89
2022/07/21 18:38:26;;;;;;;11.10;3.53;;;23.40;57.10;;;;;;2083156;28;20025;-88
2022/07/21 18:39:28;;;;;;;6.20;3.20;;;23.40;57.20;;;;;;2083297;28;20026;-88
2022/07/21 18:40:29;;;;;;;12.65;4.03;;;23.50;57.20;;;;;;2074978;28;20030;-88
2022/07/21 18:41:30;;;;;;;11.00;3.60;;;23.40;57.20;;;;;;2075994;28;20048;-88
2022/07/21 18:42:31;;;;;;;9.20;3.53;;;23.40;57.20;;;;;;2090485;28;20040;-88
2022/07/21 18:43:32;;;;;;;8.00;3.43;;;23.40;57.20;;;;;;2083036;28;20033;-89
2022/07/21 18:44:32;;;;;;;5.63;3.70;;;23.40;57.40;;;;;;2091315;28;20035;-88
2022/07/21 18:45:37;;;;;;;7.23;3.70;;;23.40;57.50;;;;;;2091409;28;20100;-89
2022/07/21 18:46:38;;;;;;;9.85;3.67;;;23.40;57.30;;;;;;2083975;28;20033;-89
2022/07/21 18:47:39;;;;;;;8.88;3.78;;;23.40;57.30;;;;;;2083094;28;20384;-88
2022/07/21 18:48:41;;;;;;;9.43;3.60;;;23.40;57.30;;;;;;2082020;28;20467;-88
2022/07/21 18:49:42;;;;;;;;;;;23.40;57.30;;;;;;2083774;28;20460;-88
2022/07/21 18:50:42;;;;;;;6.93;3.47;;;23.40;57.40;;;;;;2099473;28;19942;-88
2022/07/21 18:51:43;;;;;;;5.23;3.37;;;23.40;57.30;;;;;;2090399;28;20028;-88
2022/07/21 18:52:44;;;;;;;8.07;3.80;;;23.40;57.30;;;;;;2066729;28;20122;-89
2022/07/21 18:53:45;;;;;;;9.17;4.13;;;23.40;57.30;;;;;;2074930;28;20117;-88
2022/07/21 18:54:46;;;;;;;9.63;4.13;;;23.40;57.30;;;;;;2091325;28;20434;-88
2022/07/21 18:55:47;;;;;;;9.25;4.00;;;23.40;57.40;;;;;;2098488;28;20025;-88
2022/07/21 18:56:47;;;;;;;7.47;3.97;;;23.40;57.40;;;;;;2083626;28;20095;-89
2022/07/21 18:57:48;;;;;;;8.63;4.23;;;23.40;57.30;;;;;;2091288;28;20108;-88
2022/07/21 18:58:50;;;;;;;9.20;4.17;;;23.40;57.30;;;;;;2094629;28;20028;-88
2022/07/21 18:59:51;;;;;;;6.88;3.60;;;23.40;57.40;;;;;;2076378;28;20029;-89
2022/07/21 19:00:52;;;;;;;12.77;3.97;;;23.40;57.50;;;;;;2091390;28;20124;-88
2022/07/21 19:01:52;;;;;;;7.85;3.70;;;23.40;57.50;;;;;;2090511;28;20416;-89
2022/07/21 19:02:53;;;;;;;8.17;4.27;;;23.40;57.60;;;;;;2091203;28;20031;-88
2022/07/21 19:03:54;;;;;;;10.17;4.10;;;23.40;57.50;;;;;;2091117;28;20123;-89
2022/07/21 19:04:55;;;;;;;7.50;4.10;;;23.40;57.50;;;;;;2091163;28;20113;-89
2022/07/21 19:05:56;;;;;;;10.35;3.85;;;23.40;57.60;;;;;;2099452;28;20043;-88
2022/07/21 19:06:57;;;;;;;9.70;4.33;;;23.40;57.50;;;;;;2082968;28;20124;-90
2022/07/21 19:07:57;;;;;;;7.75;4.40;;;23.40;57.80;;;;;;2082735;28;20091;-88
2022/07/21 19:08:58;;;;;;;7.63;4.40;;;23.40;57.60;;;;;;2081941;28;20022;-88
2022/07/21 19:09:59;;;;;;;7.63;4.00;;;23.40;57.60;;;;;;2091121;28;20025;-89
2022/07/21 19:11:00;;;;;;;7.13;3.83;;;23.40;57.60;;;;;;2082864;28;20032;-88
2022/07/21 19:12:00;;;;;;;8.53;4.17;;;23.40;57.60;;;;;;2099374;28;20047;-88
2022/07/21 19:13:01;;;;;;;5.93;3.53;;;23.30;57.70;;;;;;2091132;28;20028;-88
2022/07/21 19:14:03;;;;;;;5.73;3.43;;;23.30;57.70;;;;;;2074635;28;20073;-89
2022/07/21 19:15:04;;;;;;;9.30;3.67;;;23.30;57.60;;;;;;2097196;28;20535;-89
2022/07/21 19:16:05;;;;;;;13.73;3.97;;;23.40;57.70;;;;;;2097690;28;20062;-89
2022/07/21 19:17:06;;;;;;;11.10;4.35;;;23.30;57.70;;;;;;2082893;28;20060;-88
2022/07/21 19:18:07;;;;;;;11.07;4.37;;;23.30;57.70;;;;;;2074555;28;20493;-88
2022/07/21 19:19:07;;;;;;;6.77;3.43;;;23.30;57.70;;;;;;2066688;28;20030;-89
2022/07/21 19:20:09;;;;;;;9.90;4.27;;;23.40;57.90;;;;;;2081557;28;20116;-88
2022/07/21 19:21:09;;;;;;;10.70;3.88;;;23.30;57.80;;;;;;2082902;28;20029;-88
2022/07/21 19:22:10;;;;;;;7.33;3.67;;;23.30;57.80;;;;;;2073742;28;20030;-89
2022/07/21 19:23:11;;;;;;;8.43;3.57;;;23.30;57.90;;;;;;2095106;28;20378;-88
2022/07/21 19:24:12;;;;;;;5.40;3.40;;;23.30;58.50;;;;;;2091240;28;20021;-88
2022/07/21 19:25:13;;;;;;;5.27;3.57;;;23.30;57.80;;;;;;2074671;28;20041;-89
2022/07/21 19:26:14;;;;;;;6.43;3.60;;;23.30;57.90;;;;;;2074833;28;20425;-88
2022/07/21 19:27:17;;;;;;;6.80;3.53;;;23.30;57.90;;;;;;2074809;28;20045;-88
2022/07/21 19:28:17;;;;;;;9.05;3.75;;;23.30;57.80;;;;;;2094011;28;20029;-88
2022/07/21 19:29:18;;;;;;;8.30;3.63;;;23.30;58.00;;;;;;2091048;28;20039;-88
2022/07/21 19:30:20;;;;;;;8.97;3.60;;;23.30;57.90;;;;;;2081257;28;20025;-88
2022/07/21 19:31:23;;;;;;;6.40;3.42;;;23.30;58.00;;;;;;2083017;28;20085;-89
2022/07/21 19:32:23;;;;;;;7.35;3.92;;;23.20;58.10;;;;;;2082950;28;20034;-88
2022/07/21 19:33:24;;;;;;;11.03;3.67;;;23.20;58.30;;;;;;2082746;28;20022;-89
2022/07/21 19:34:27;;;;;;;6.27;3.60;;;23.30;58.20;;;;;;2090937;28;20025;-89
2022/07/21 19:35:29;;;;;;;11.40;3.78;;;23.30;58.20;;;;;;2081795;28;20040;-88
2022/07/21 19:36:29;;;;;;;7.43;3.72;;;23.30;58.20;;;;;;2082832;28;20375;-88
2022/07/21 19:37:30;;;;;;;6.77;4.07;;;23.30;58.20;;;;;;2082830;28;20026;-88
2022/07/21 19:38:31;;;;;;;12.40;4.10;;;23.20;58.30;;;;;;2090883;28;20021;-89
2022/07/21 19:39:32;;;;;;;11.77;4.80;;;23.20;58.30;;;;;;2091057;28;20352;-88
2022/07/21 19:40:33;;;;;;;10.90;5.07;;;23.20;58.40;;;;;;2090993;28;20029;-88
2022/07/21 19:41:33;;;;;;;11.73;6.13;;;23.20;58.40;;;;;;2090138;28;20123;-89
2022/07/21 19:42:34;;;;;;;9.17;5.80;;;23.20;58.50;;;;;;2074657;28;20105;-88
2022/07/21 19:43:35;;;;;;;13.60;6.83;;;23.20;58.50;;;;;;2082756;28;20025;-88
2022/07/21 19:44:36;;;;;;;13.80;7.57;;;23.20;58.50;;;;;;2082570;28;20061;-88
2022/07/21 19:45:37;;;;;;;13.57;6.00;;;23.20;59.30;;;;;;2090806;28;20052;-88
2022/07/21 19:46:37;;;;;;;10.87;5.80;;;23.20;58.70;;;;;;2083793;28;20092;-88
2022/07/21 19:47:39;;;;;;;10.30;6.00;;;23.20;58.60;;;;;;2090936;28;20051;-88
2022/07/21 19:48:39;;;;;;;11.68;5.00;;;23.20;58.60;;;;;;2097835;28;20115;-88
2022/07/21 19:49:40;;;;;;;7.07;4.53;;;23.20;58.60;;;;;;2082639;28;20025;-88
2022/07/21 19:50:42;;;;;;;6.47;4.23;;;23.30;58.80;;;;;;2084504;28;20063;-89
2022/07/21 19:51:43;;;;;;;10.77;4.78;;;23.20;58.60;;;;;;2075424;28;20030;-88
2022/07/21 19:52:43;;;;;;;11.23;4.93;;;23.20;58.80;;;;;;2074566;28;20026;-88
2022/07/21 19:53:44;;;;;;;7.55;4.00;;;23.10;58.80;;;;;;2082547;28;20083;-89
2022/07/21 19:54:45;;;;;;;8.03;4.60;;;23.20;58.90;;;;;;2082754;28;20087;-88
2022/07/21 19:55:46;;;;;;;7.57;4.13;;;23.10;58.90;;;;;;2089927;28;20016;-89
2022/07/21 19:56:47;;;;;;;6.73;3.93;;;23.20;58.80;;;;;;2074470;28;20034;-88
2022/07/21 19:57:47;;;;;;;6.83;3.53;;;23.20;58.80;;;;;;2074486;28;20026;-88
2022/07/21 19:58:48;;;;;;;8.70;4.33;;;23.20;58.80;;;;;;2079258;28;20022;-88
2022/07/21 19:59:49;;;;;;;5.90;4.47;;;23.20;58.70;;;;;;2082547;28;20092;-88
2022/07/21 20:00:50;;;;;;;8.17;4.20;;;23.20;58.70;;;;;;2080731;28;20084;-89
2022/07/21 20:01:51;;;;;;;7.37;4.30;;;23.20;58.70;;;;;;2081862;28;20721;-89
2022/07/21 20:02:52;;;;;;;7.53;4.10;;;23.20;58.90;;;;;;2091384;28;20047;-88
2022/07/21 20:03:53;;;;;;;5.43;3.97;;;23.20;59.00;;;;;;2091176;28;20037;-88
2022/07/21 20:04:54;;;;;;;8.43;4.10;;;23.20;59.00;;;;;;2091382;28;20108;-89
2022/07/21 20:05:55;;;;;;;12.40;4.90;;;23.20;58.90;;;;;;2082999;28;20052;-89
2022/07/21 20:06:56;;;;;;;8.30;4.13;;;23.20;58.90;;;;;;2075117;28;20535;-89
2022/07/21 20:07:56;;;;;;;5.73;4.10;;;23.20;59.10;;;;;;2087574;28;20036;-88
2022/07/21 20:08:58;;;;;;;9.37;4.13;;;23.20;59.00;;;;;;2082116;28;20041;-88
2022/07/21 20:09:59;;;;;;;7.30;4.65;;;23.20;59.00;;;;;;2091151;28;20071;-88
2022/07/21 20:11:00;;;;;;;7.67;4.40;;;23.20;59.10;;;;;;2081136;28;20026;-89
2022/07/21 20:12:00;;;;;;;7.80;3.90;;;23.20;59.00;;;;;;2082710;28;20368;-88
2022/07/21 20:13:04;;;;;;;6.43;3.90;;;23.20;59.00;;;;;;2086869;28;20063;-89
2022/07/21 20:14:05;;;;;;;9.05;4.43;;;23.10;59.00;;;;;;2082753;28;20025;-89
2022/07/21 20:15:08;;;;;;;7.28;4.35;;;23.10;59.10;;;;;;2089678;28;20025;-88
2022/07/21 20:16:09;;;;;;;7.47;4.75;;;23.10;59.10;;;;;;2090246;28;20431;-88
2022/07/21 20:17:10;;;;;;;15.20;5.13;;;23.10;59.10;;;;;;2074519;28;20046;-89
2022/07/21 20:18:12;;;;;;;10.75;4.97;;;23.10;59.20;;;;;;2087270;28;20036;-88
2022/07/21 20:19:13;;;;;;;9.25;4.75;;;23.10;59.20;;;;;;2090762;28;20017;-88
2022/07/21 20:20:16;;;;;;;7.00;4.00;;;23.20;59.20;;;;;;2082340;28;20432;-89
2022/07/21 20:21:17;;;;;;;10.88;4.80;;;23.10;59.10;;;;;;2082802;28;20026;-88
2022/07/21 20:22:18;;;;;;;7.47;4.22;;;23.10;59.30;;;;;;2081572;28;20096;-89
2022/07/21 20:23:19;;;;;;;11.23;4.97;;;23.10;59.20;;;;;;2074368;28;20121;-88
2022/07/21 20:24:20;;;;;;;8.57;4.33;;;23.10;59.30;;;;;;2074235;28;20022;-88
2022/07/21 20:25:20;;;;;;;10.37;4.40;;;23.10;59.30;;;;;;2081780;28;20341;-88
2022/07/21 20:26:21;;;;;;;12.43;4.90;;;23.10;59.30;;;;;;2082301;28;20121;-88
2022/07/21 20:27:24;;;;;;;8.38;4.85;;;23.10;59.30;;;;;;2090944;28;20353;-89
2022/07/21 20:28:25;;;;;;;10.68;4.35;;;23.20;59.40;;;;;;2092902;28;20451;-89
2022/07/21 20:29:26;;;;;;;10.50;5.03;;;23.10;59.30;;;;;;2091262;28;20114;-88
2022/07/21 20:30:27;;;;;;;7.32;4.72;;;23.20;59.30;;;;;;2098868;28;20043;-88
2022/07/21 20:31:27;;;;;;;6.70;4.33;;;23.20;59.30;;;;;;2076904;28;20033;-89
2022/07/21 20:32:28;;;;;;;8.93;4.63;;;23.20;59.30;;;;;;2083068;28;20018;-88
2022/07/21 20:33:29;;;;;;;9.90;4.67;;;23.20;59.30;;;;;;2092450;28;20039;-89
2022/07/21 20:34:31;;;;;;;9.40;4.50;;;23.10;59.20;;;;;;2082886;28;20033;-88
2022/07/21 20:35:31;;;;;;;10.93;4.72;;;23.10;59.30;;;;;;2088820;28;20526;-88
2022/07/21 20:36:33;;;;;;;7.70;4.50;;;23.10;59.50;;;;;;2089379;28;20052;-88
2022/07/21 20:37:34;;;;;;;6.50;4.18;;;23.10;59.50;;;;;;2082986;28;20108;-88
2022/07/21 20:38:34;;;;;;;6.00;4.13;;;23.10;59.40;;;;;;2091241;28;20025;-88
2022/07/21 20:39:35;;;;;;;7.07;4.10;;;23.10;59.50;;;;;;2082911;28;20067;-88
2022/07/21 20:40:37;;;;;;;9.63;4.70;;;23.10;59.50;;;;;;2091124;28;20061;-89
2022/07/21 20:41:38;;;;;;;8.20;4.53;;;23.20;59.50;;;;;;2090046;28;20115;-88
2022/07/21 20:42:39;;;;;;;6.77;4.47;;;23.20;59.30;;;;;;2091201;28;20044;-88
2022/07/21 20:43:40;;;;;;;11.67;4.23;;;23.20;59.50;;;;;;2094838;28;20123;-88
2022/07/21 20:44:41;;;;;;;9.73;4.77;;;23.10;59.40;;;;;;2099469;28;20032;-88
2022/07/21 20:45:41;;;;;;;6.90;4.63;;;23.10;59.60;;;;;;2106754;28;20020;-88
2022/07/21 20:46:42;;;;;;;9.83;4.30;;;23.10;59.60;;;;;;2090979;28;20478;-88
2022/07/21 20:47:43;;;;;;;9.20;4.53;;;23.10;59.60;;;;;;2099370;28;20264;-88
2022/07/21 20:48:44;;;;;;;9.27;5.17;;;23.10;59.60;;;;;;2098294;28;20110;-89
2022/07/21 20:49:47;;;;;;;11.40;4.20;;;23.10;59.60;;;;;;2091171;28;20017;-88
2022/07/21 20:50:48;;;;;;;7.70;4.38;;;23.10;59.70;;;;;;2091002;28;20529;-89
2022/07/21 20:51:49;;;;;;;7.83;3.97;;;23.10;60.20;;;;;;2086107;28;20025;-88
2022/07/21 20:52:50;;;;;;;10.23;4.53;;;23.10;59.60;;;;;;2082633;28;20029;-89
2022/07/21 20:53:51;;;;;;;6.80;5.00;;;23.10;59.70;;;;;;2082776;28;20416;-88
2022/07/21 20:54:52;;;;;;;8.53;4.37;;;23.10;59.70;;;;;;2082368;28;20353;-88
2022/07/21 20:55:52;;;;;;;10.17;4.63;;;23.10;59.70;;;;;;2090731;28;20027;-89
2022/07/21 20:56:53;;;;;;;6.50;4.43;;;23.10;59.70;;;;;;2090668;28;20044;-89
2022/07/21 20:57:54;;;;;;;9.13;4.37;;;23.00;59.70;;;;;;2090595;28;20061;-88
2022/07/21 20:58:55;;;;;;;7.27;4.83;;;23.00;59.80;;;;;;2098521;28;20120;-88
2022/07/21 20:59:55;;;;;;;7.00;4.33;;;23.10;60.00;;;;;;2098258;28;20032;-89
2022/07/21 21:00:56;;;;;;;6.50;4.57;;;23.10;59.80;;;;;;2098766;28;20033;-89
2022/07/21 21:01:57;;;;;;;7.13;4.67;;;23.00;59.80;;;;;;2089556;28;20036;-88
2022/07/21 21:02:58;;;;;;;10.35;4.70;;;23.00;59.90;;;;;;2079669;28;20071;-88
2022/07/21 21:03:58;;;;;;;9.40;4.60;;;23.00;60.00;;;;;;2090682;28;20453;-88
2022/07/21 21:04:59;;;;;;;6.50;4.43;;;23.00;60.00;;;;;;2090642;28;20064;-88
2022/07/21 21:06:00;;;;;;;7.10;4.13;;;23.00;59.90;;;;;;2098695;28;20040;-89
2022/07/21 21:07:02;;;;;;;8.30;4.68;;;23.00;60.00;;;;;;2098883;28;20035;-89
2022/07/21 21:08:03;;;;;;;7.43;4.53;;;23.00;60.20;;;;;;2090452;28;20458;-88
2022/07/21 21:09:05;;;;;;;9.20;4.57;;;23.00;60.10;;;;;;2089827;28;20021;-91
2022/07/21 21:10:06;;;;;;;7.75;4.47;;;23.00;60.10;;;;;;2090517;28;20040;-89
2022/07/21 21:11:07;;;;;;;7.20;4.40;;;22.90;60.10;;;;;;2082336;28;20040;-89
2022/07/21 21:12:08;;;;;;;7.60;4.50;;;22.90;60.30;;;;;;2090543;28;20029;-85
2022/07/21 21:13:09;;;;;;;10.93;5.30;;;22.80;60.70;;;;;;2095919;28;20085;-88
2022/07/21 21:14:09;;;;;;;6.80;4.53;;;22.80;61.10;;;;;;2090794;28;20072;-86
2022/07/21 21:15:10;;;;;;;9.70;4.57;;;22.70;61.20;;;;;;2099197;28;20719;-85
2022/07/21 21:16:11;;;;;;;8.03;4.30;;;22.70;61.40;;;;;;2102891;28;20024;-85
2022/07/21 21:17:12;;;;;;;7.33;4.70;;;22.70;61.40;;;;;;2100939;28;20020;-88
2022/07/21 21:18:13;;;;;;;9.32;4.70;;;22.70;61.50;;;;;;2092459;28;20026;-87
2022/07/21 21:19:14;;;;;;;7.33;4.53;;;22.80;61.50;;;;;;2092384;28;20458;-88
2022/07/21 21:20:17;;;;;;;7.18;4.35;;;22.80;61.30;;;;;;2091785;28;20394;-94
2022/07/21 21:21:18;;;;;;;7.00;4.32;;;22.80;61.10;;;;;;2095172;28;20024;-93
2022/07/21 21:22:19;;;;;;;7.68;4.97;;;22.90;61.00;;;;;;2092148;28;21557;-94
2022/07/21 21:23:20;;;;;;;7.37;5.10;;;22.80;60.80;;;;;;2085712;28;20053;-91
2022/07/21 21:24:21;;;;;;;13.38;4.72;;;22.90;60.70;;;;;;2084815;28;20038;-93
2022/07/21 21:25:22;;;;;;;7.07;4.33;;;22.90;60.70;;;;;;2092685;28;20108;-86
2022/07/21 21:26:23;;;;;;;8.45;4.85;;;22.90;60.60;;;;;;2093559;28;20059;-87
2022/07/21 21:27:24;;;;;;;7.40;4.50;;;22.90;60.50;;;;;;2092334;28;20082;-87
2022/07/21 21:28:25;;;;;;;8.10;4.70;;;22.90;60.40;;;;;;2101109;28;20044;-92
2022/07/21 21:29:26;;;;;;;8.07;4.68;;;22.90;60.40;;;;;;2092920;28;20032;-92
2022/07/21 21:30:27;;;;;;;7.10;4.63;;;22.90;60.40;;;;;;2093380;28;20119;-94
2022/07/21 21:31:28;;;;;;;10.53;4.43;;;23.00;60.40;;;;;;2101043;28;20131;-93
2022/07/21 21:32:28;;;;;;;10.10;4.93;;;23.00;60.30;;;;;;2092447;28;20021;-95
2022/07/21 21:33:29;;;;;;;7.43;4.53;;;23.00;60.30;;;;;;2090108;28;20091;-89
2022/07/21 21:34:30;;;;;;;8.98;4.78;;;23.00;60.30;;;;;;2100777;28;20039;-90
2022/07/21 21:35:34;;;;;;;10.50;4.93;;;23.00;61.00;;;;;;2099679;28;20443;-94
2022/07/21 21:36:35;;;;;;;8.30;4.88;;;23.00;60.30;;;;;;2093557;28;20101;-93
2022/07/21 21:37:37;;;;;;;5.60;4.43;;;23.00;60.30;;;;;;2093642;28;20067;-93
2022/07/21 21:38:37;;;;;;;;;;;23.00;60.30;;;;;;2085672;28;20108;-94
2022/07/21 21:39:40;;;;;;;8.82;4.70;;;23.00;60.30;;;;;;2085180;28;19909;-93
2022/07/21 21:40:43;;;;;;;9.75;4.80;;;23.00;60.30;;;;;;2100773;28;20024;-88
2022/07/21 21:42:48;;;;;;;10.43;4.80;;;22.90;59.80;;;;;;2124150;27;20345;-87
2022/07/21 21:44:41;;;;;;;8.93;4.72;;;23.00;59.80;;;;;;2123835;27;20822;-90
2022/07/21 21:45:41;;;;;;;8.60;4.60;;;23.00;60.50;;;;;;2106517;28;20099;-88
2022/07/21 21:46:42;;;;;;;10.10;4.70;;;22.90;60.60;;;;;;2089558;28;20448;-88
2022/07/21 21:47:43;;;;;;;8.10;4.47;;;22.90;60.50;;;;;;2090061;28;20079;-88
2022/07/21 21:48:44;;;;;;;7.53;4.50;;;22.90;60.50;;;;;;2088773;28;20108;-87